METAR AND TAF INFORMATION
METAR FOR SVJM
ADDS - METARS form results

(0419 UTC 12 August 2020)
Data provider http://aviationweather.gov/metar/data/
 
METAR text: SVJM 120402Z AUTO 05002KT NCD 22/22 Q1013
Conditions at: SVJM (SAN JUAN LOS MOR, VE) observed 0402 UTC 12 August 2020
Temperature: 22.0°C (72°F)
Dewpoint: 22.0°C (72°F) [RH = 100%]
Pressure (altimeter): 29.91 inches Hg (1013.0 mb)
Winds: from the NE (50 degrees) at 2 MPH (2 knots; 1.0 m/s)
Visibility: missing
Ceiling: at least 12,000 feet AGL
Clouds: sky clear below 12,000 feet AGL
Weather: no significant weather observed at this time

 AIRPORT MAP

 RUNWAY INFORMATION
Runway 06 Runway length 4990 ft Runway width 75 ft
Runway elevation 0 ft Runway displaced threshold 0 ft Runway heading 49
Runway 24 Runway length 4990 ft Runway width 75 ft
Runway elevation 0 ft Runway displaced threshold 0 ft Runway heading 229

 AIRPORT FREQUENCIES

 AIRPORT NEAR NAVIGATION AIDS